createdAt,value
2022-11-30T00:00:27.487Z,3.40
2022-11-30T00:02:55.243Z,5.30
2022-11-30T00:05:22.516Z,4.85
2022-11-30T00:07:49.740Z,5.95
2022-11-30T00:10:16.547Z,3.85
2022-11-30T00:12:43.662Z,4.53
2022-11-30T00:15:12.902Z,3.30
2022-11-30T00:17:42.882Z,5.47
2022-11-30T00:20:09.711Z,3.75
2022-11-30T00:22:36.424Z,5.47
2022-11-30T00:25:04.724Z,3.15
2022-11-30T00:27:31.976Z,3.80
2022-11-30T00:29:59.154Z,3.45
2022-11-30T00:32:28.345Z,4.18
2022-11-30T00:34:55.157Z,4.30
2022-11-30T00:37:21.868Z,3.95
2022-11-30T00:39:48.530Z,5.50
2022-11-30T00:42:15.171Z,4.22
2022-11-30T00:44:41.798Z,5.68
2022-11-30T00:47:08.484Z,4.00
2022-11-30T00:49:35.134Z,4.13
2022-11-30T00:52:01.980Z,3.60
2022-11-30T00:54:28.624Z,5.72
2022-11-30T00:56:55.346Z,6.18
2022-11-30T00:59:21.925Z,4.10
2022-11-30T01:01:48.617Z,3.95
2022-11-30T01:04:15.301Z,3.85
2022-11-30T01:06:43.330Z,4.25
2022-11-30T01:09:10.079Z,7.30
2022-11-30T01:11:36.847Z,4.85
2022-11-30T01:14:03.571Z,5.40
2022-11-30T01:16:31.374Z,4.80
2022-11-30T01:18:58.027Z,4.65
2022-11-30T01:21:26.166Z,4.63
2022-11-30T01:23:53.062Z,5.90
2022-11-30T01:26:19.768Z,5.80
2022-11-30T01:28:50.065Z,5.28
2022-11-30T01:31:16.881Z,5.45
2022-11-30T01:33:43.728Z,4.95
2022-11-30T01:36:17.722Z,5.38
2022-11-30T01:38:46.010Z,5.20
2022-11-30T01:41:13.813Z,7.30
2022-11-30T01:43:47.574Z,4.95
2022-11-30T01:46:29.511Z,5.35
2022-11-30T01:49:10.472Z,5.63
2022-11-30T01:51:48.108Z,6.57
2022-11-30T01:54:16.697Z,6.25
2022-11-30T01:56:45.530Z,5.38
2022-11-30T01:59:12.116Z,7.47
2022-11-30T02:01:38.793Z,5.30
2022-11-30T02:04:09.950Z,5.18
2022-11-30T02:06:36.605Z,6.55
2022-11-30T02:09:03.321Z,5.95
2022-11-30T02:11:29.917Z,5.65
2022-11-30T02:14:13.468Z,5.75
2022-11-30T02:16:45.953Z,5.10
2022-11-30T02:19:32.573Z,7.07
2022-11-30T02:22:06.918Z,5.50
2022-11-30T02:24:33.538Z,7.97
2022-11-30T02:27:00.192Z,6.75
2022-11-30T02:29:33.120Z,5.60
2022-11-30T02:32:18.644Z,6.75
2022-11-30T02:34:47.244Z,6.68
2022-11-30T02:37:14.942Z,7.03
2022-11-30T02:39:42.396Z,7.15
2022-11-30T02:42:15.702Z,5.53
2022-11-30T02:44:45.507Z,5.40
2022-11-30T02:47:18.751Z,6.18
2022-11-30T02:49:51.781Z,5.60
2022-11-30T02:52:19.985Z,6.35
2022-11-30T02:54:46.835Z,6.57
2022-11-30T02:57:13.629Z,5.70
2022-11-30T02:59:40.391Z,5.95
2022-11-30T03:02:07.031Z,6.03
2022-11-30T03:04:33.729Z,6.05
2022-11-30T03:07:00.518Z,5.68
2022-11-30T03:09:27.104Z,6.90
2022-11-30T03:11:53.762Z,6.90
2022-11-30T03:14:20.364Z,6.57
2022-11-30T03:16:46.947Z,7.07
2022-11-30T03:19:14.279Z,6.15
2022-11-30T03:21:40.964Z,8.75
2022-11-30T03:24:07.926Z,9.05
2022-11-30T03:26:34.641Z,6.38
2022-11-30T03:29:01.296Z,7.90
2022-11-30T03:31:27.990Z,6.28
2022-11-30T03:33:54.634Z,7.20
2022-11-30T03:36:21.274Z,6.95
2022-11-30T03:38:47.921Z,8.18
2022-11-30T03:41:16.527Z,7.57
2022-11-30T03:43:46.592Z,7.90
2022-11-30T03:46:13.899Z,8.48
2022-11-30T03:48:43.423Z,9.27
2022-11-30T03:51:10.493Z,8.65
2022-11-30T03:53:37.165Z,8.25
2022-11-30T03:56:05.347Z,12.27
2022-11-30T03:58:32.087Z,9.50
2022-11-30T04:01:06.523Z,9.57
2022-11-30T04:03:33.615Z,9.68
2022-11-30T04:06:00.405Z,10.73
2022-11-30T04:08:27.677Z,11.50
2022-11-30T04:10:55.049Z,10.65
2022-11-30T04:13:22.207Z,11.52
2022-11-30T04:15:49.472Z,11.38
2022-11-30T04:18:16.580Z,10.65
2022-11-30T04:20:43.765Z,13.60
2022-11-30T04:23:10.820Z,12.40
2022-11-30T04:25:41.225Z,12.98
2022-11-30T04:28:08.166Z,13.25
2022-11-30T04:30:35.147Z,15.25
2022-11-30T04:33:01.970Z,14.20
2022-11-30T04:35:29.041Z,16.85
2022-11-30T04:37:55.860Z,15.70
2022-11-30T04:40:22.539Z,16.95
2022-11-30T04:42:50.272Z,27.00
2022-11-30T04:45:17.030Z,15.43
2022-11-30T04:47:43.698Z,13.98
2022-11-30T04:50:10.419Z,16.52
2022-11-30T04:52:37.114Z,17.23
2022-11-30T04:55:07.128Z,17.35
2022-11-30T04:57:33.848Z,18.23
2022-11-30T05:00:00.475Z,16.67
2022-11-30T05:02:29.261Z,16.50
2022-11-30T05:04:55.952Z,18.13
2022-11-30T05:07:22.562Z,17.98
2022-11-30T05:09:49.222Z,17.08
2022-11-30T05:12:15.828Z,16.52
2022-11-30T05:14:42.842Z,16.50
2022-11-30T05:17:09.484Z,17.73
2022-11-30T05:19:36.124Z,18.65
2022-11-30T05:22:02.771Z,17.45
2022-11-30T05:24:29.451Z,18.05
2022-11-30T05:26:56.143Z,16.02
2022-11-30T05:29:22.864Z,17.60
2022-11-30T05:31:49.563Z,17.13
2022-11-30T05:34:16.375Z,15.95
2022-11-30T05:36:43.048Z,16.38
2022-11-30T05:39:09.908Z,18.02
2022-11-30T05:41:37.427Z,16.73
2022-11-30T05:44:04.625Z,18.55
2022-11-30T05:46:31.247Z,16.80
2022-11-30T05:48:57.847Z,16.52
2022-11-30T05:51:24.554Z,16.98
2022-11-30T05:53:51.167Z,18.55
2022-11-30T05:56:19.203Z,17.20
2022-11-30T05:58:46.491Z,16.17
2022-11-30T06:01:20.345Z,16.52
2022-11-30T06:03:47.253Z,17.85
2022-11-30T06:06:13.919Z,16.65
2022-11-30T06:08:40.764Z,15.80
2022-11-30T06:11:07.558Z,18.80
2022-11-30T06:13:34.381Z,16.95
2022-11-30T06:16:01.729Z,18.90
2022-11-30T06:18:28.584Z,18.33
2022-11-30T06:20:55.378Z,15.60
2022-11-30T06:23:21.950Z,18.02
2022-11-30T06:25:48.599Z,17.35
2022-11-30T06:28:15.188Z,18.30
2022-11-30T06:30:41.707Z,17.10
2022-11-30T06:33:08.310Z,16.13
2022-11-30T06:35:34.926Z,17.00
2022-11-30T06:38:01.737Z,19.40
2022-11-30T06:40:28.483Z,19.88
2022-11-30T06:42:55.262Z,21.73
2022-11-30T06:45:22.057Z,21.23
2022-11-30T06:47:48.838Z,20.27
2022-11-30T06:50:15.464Z,20.98
2022-11-30T06:52:42.177Z,22.45
2022-11-30T06:55:08.949Z,22.40
2022-11-30T06:57:35.593Z,22.02
2022-11-30T07:00:02.363Z,23.80
2022-11-30T07:02:29.053Z,19.70
2022-11-30T07:04:55.706Z,21.42
2022-11-30T07:07:22.545Z,21.65
2022-11-30T07:09:49.805Z,21.30
2022-11-30T07:12:17.020Z,23.25
2022-11-30T07:14:43.638Z,20.63
2022-11-30T07:17:10.291Z,21.40
2022-11-30T07:19:37.036Z,20.35
2022-11-30T07:22:03.943Z,20.75
2022-11-30T07:24:49.533Z,22.23
2022-11-30T07:27:16.361Z,24.60
2022-11-30T07:29:43.139Z,24.10
2022-11-30T07:32:09.882Z,21.27
2022-11-30T07:34:36.582Z,21.45
2022-11-30T07:37:03.226Z,22.50
2022-11-30T07:39:29.819Z,26.10
2022-11-30T07:41:56.450Z,21.00
2022-11-30T07:44:26.009Z,24.05
2022-11-30T07:46:52.676Z,22.25
2022-11-30T07:49:20.322Z,21.08
2022-11-30T07:51:47.062Z,20.52
2022-11-30T07:54:13.725Z,19.42
2022-11-30T07:56:40.298Z,20.90
2022-11-30T07:59:06.943Z,19.02
2022-11-30T08:01:33.787Z,20.17
2022-11-30T08:04:00.602Z,22.23
2022-11-30T08:06:28.509Z,23.92
2022-11-30T08:08:57.092Z,20.92
2022-11-30T08:11:25.493Z,20.08
2022-11-30T08:13:52.973Z,20.70
2022-11-30T08:16:21.359Z,18.30
2022-11-30T08:18:48.200Z,20.05
2022-11-30T08:21:16.198Z,19.15
2022-11-30T08:23:44.214Z,20.35
2022-11-30T08:26:12.718Z,18.95
2022-11-30T08:28:39.638Z,19.40
2022-11-30T08:31:08.201Z,17.85
2022-11-30T08:33:35.322Z,17.15
2022-11-30T08:36:11.218Z,19.60
2022-11-30T08:38:38.505Z,17.30
2022-11-30T08:41:06.117Z,15.75
2022-11-30T08:43:33.235Z,17.20
2022-11-30T08:46:01.827Z,16.15
2022-11-30T08:48:28.575Z,11.10
2022-11-30T08:50:55.208Z,15.60
2022-11-30T08:53:21.794Z,15.07
2022-11-30T08:55:55.387Z,12.98
2022-11-30T08:58:22.053Z,10.50
2022-11-30T09:00:48.713Z,10.85
2022-11-30T09:03:15.634Z,15.38
2022-11-30T09:05:42.396Z,8.75
2022-11-30T09:08:10.125Z,8.52
2022-11-30T09:10:37.020Z,7.05
2022-11-30T09:13:03.647Z,5.85
2022-11-30T09:15:30.331Z,5.78
2022-11-30T09:17:56.962Z,6.28
2022-11-30T09:20:23.586Z,6.90
2022-11-30T09:22:50.187Z,6.82
2022-11-30T09:25:16.848Z,7.32
2022-11-30T09:27:43.445Z,7.38
2022-11-30T09:30:10.299Z,6.88
2022-11-30T09:32:36.962Z,5.47
2022-11-30T09:35:03.604Z,6.25
2022-11-30T09:37:30.242Z,7.50
2022-11-30T09:39:56.843Z,5.97
2022-11-30T09:42:29.341Z,6.75
2022-11-30T09:45:02.121Z,5.75
2022-11-30T09:47:43.744Z,7.05
2022-11-30T09:50:19.191Z,7.22
2022-11-30T09:52:56.458Z,6.70
2022-11-30T09:55:43.368Z,10.35
2022-11-30T09:58:15.537Z,8.77
2022-11-30T10:00:42.142Z,9.95
2022-11-30T10:03:11.361Z,8.23
2022-11-30T10:05:41.194Z,7.80
2022-11-30T10:08:18.079Z,8.27
2022-11-30T10:10:50.968Z,7.72
2022-11-30T10:13:30.724Z,8.05
2022-11-30T10:16:02.585Z,7.35
2022-11-30T10:18:49.177Z,7.88
2022-11-30T10:21:34.250Z,9.23
2022-11-30T10:24:13.004Z,9.15
2022-11-30T10:26:42.089Z,6.00
2022-11-30T10:29:14.690Z,9.43
2022-11-30T10:31:42.467Z,8.45
2022-11-30T10:34:23.698Z,7.47
2022-11-30T10:36:54.949Z,9.50
2022-11-30T10:39:34.293Z,8.20
2022-11-30T10:42:12.529Z,10.52
2022-11-30T10:44:42.556Z,10.15
2022-11-30T10:47:16.142Z,11.60
2022-11-30T10:49:52.836Z,8.93
2022-11-30T10:52:26.213Z,11.02
2022-11-30T10:54:56.840Z,12.93
2022-11-30T10:57:28.657Z,12.32
2022-11-30T10:59:56.393Z,11.80
2022-11-30T11:02:36.852Z,12.18
2022-11-30T11:05:13.812Z,11.93
2022-11-30T11:07:55.308Z,11.80
2022-11-30T11:10:25.376Z,13.40
2022-11-30T11:12:53.133Z,16.95
2022-11-30T11:15:24.360Z,17.45
2022-11-30T11:17:51.729Z,16.58
2022-11-30T11:20:29.214Z,21.35
2022-11-30T11:22:56.058Z,18.40
2022-11-30T11:25:25.360Z,19.25
2022-11-30T11:27:53.039Z,20.67
2022-11-30T11:30:29.792Z,19.92
2022-11-30T11:32:59.902Z,23.77
2022-11-30T11:35:32.622Z,23.13
2022-11-30T11:37:59.304Z,18.02
2022-11-30T11:40:25.995Z,15.57
2022-11-30T11:42:53.422Z,15.50
2022-11-30T11:45:27.830Z,16.08
2022-11-30T11:47:57.579Z,16.80
2022-11-30T11:50:50.277Z,18.73
2022-11-30T11:53:25.150Z,17.10
2022-11-30T11:55:54.396Z,16.50
2022-11-30T11:58:32.949Z,14.20
2022-11-30T12:01:37.590Z,15.18
2022-11-30T12:03:57.567Z,16.25
2022-11-30T12:06:24.404Z,16.65
2022-11-30T12:08:55.039Z,14.27
2022-11-30T12:11:25.159Z,16.05
2022-11-30T12:13:53.617Z,16.50
2022-11-30T12:16:20.256Z,15.15
2022-11-30T12:18:54.459Z,17.05
2022-11-30T12:21:21.012Z,15.95
2022-11-30T12:23:47.668Z,16.98
2022-11-30T12:26:20.764Z,15.05
2022-11-30T12:29:07.626Z,16.38
2022-11-30T12:31:41.659Z,16.13
2022-11-30T12:34:17.211Z,15.85
2022-11-30T12:36:44.190Z,17.20
2022-11-30T12:39:10.823Z,15.13
2022-11-30T12:41:43.581Z,15.77
2022-11-30T12:44:13.021Z,16.13
2022-11-30T12:46:54.883Z,16.35
2022-11-30T12:49:29.697Z,15.80
2022-11-30T12:51:56.373Z,16.42
2022-11-30T12:54:28.943Z,14.35
2022-11-30T12:57:03.322Z,15.02
2022-11-30T12:59:38.865Z,14.38
2022-11-30T13:02:23.911Z,15.68
2022-11-30T13:04:58.205Z,15.13
2022-11-30T13:07:32.801Z,15.32
2022-11-30T13:09:59.814Z,13.20
2022-11-30T13:12:36.434Z,12.63
2022-11-30T13:15:11.063Z,15.23
2022-11-30T13:17:42.520Z,14.55
2022-11-30T13:20:27.923Z,13.85
2022-11-30T13:23:00.481Z,15.23
2022-11-30T13:26:07.519Z,13.38
2022-11-30T13:28:25.118Z,13.77
2022-11-30T13:30:51.661Z,15.23
2022-11-30T13:33:36.884Z,12.00
2022-11-30T13:36:04.663Z,13.10
2022-11-30T13:38:38.742Z,12.38
2022-11-30T13:41:07.426Z,10.57
2022-11-30T13:44:00.234Z,12.95
2022-11-30T13:46:26.947Z,10.65
2022-11-30T13:49:19.805Z,9.75
2022-11-30T13:51:50.237Z,11.00
2022-11-30T13:54:38.924Z,9.95
2022-11-30T13:57:18.943Z,10.50
2022-11-30T13:59:47.070Z,9.50
2022-11-30T14:02:32.372Z,9.65
2022-11-30T14:05:21.549Z,8.43
2022-11-30T14:08:00.389Z,8.20
2022-11-30T14:10:27.063Z,8.18
2022-11-30T14:12:58.709Z,9.48
2022-11-30T14:15:31.756Z,9.65
2022-11-30T14:17:58.757Z,8.63
2022-11-30T14:20:27.434Z,8.35
2022-11-30T14:22:54.735Z,8.55
2022-11-30T14:25:21.818Z,9.15
2022-11-30T14:27:50.682Z,10.20
2022-11-30T14:30:19.018Z,10.15
2022-11-30T14:32:49.407Z,12.63
2022-11-30T14:35:17.290Z,11.43
2022-11-30T14:37:52.565Z,11.88
2022-11-30T14:40:20.218Z,10.85
2022-11-30T14:42:48.964Z,15.00
2022-11-30T14:45:27.113Z,13.93
2022-11-30T14:48:04.012Z,14.23
2022-11-30T14:50:30.878Z,14.05
2022-11-30T14:53:09.437Z,11.15
2022-11-30T14:55:39.115Z,15.73
2022-11-30T14:58:21.287Z,14.10
2022-11-30T15:00:48.821Z,14.27
2022-11-30T15:03:20.094Z,15.93
2022-11-30T15:05:46.789Z,16.73
2022-11-30T15:08:15.129Z,14.73
2022-11-30T15:10:42.379Z,14.98
2022-11-30T15:13:13.157Z,16.67
2022-11-30T15:15:49.407Z,15.20
2022-11-30T15:18:17.692Z,15.50
2022-11-30T15:20:45.370Z,15.48
2022-11-30T15:23:15.479Z,14.40
2022-11-30T15:25:50.926Z,15.65
2022-11-30T15:28:27.293Z,14.85
2022-11-30T15:30:55.569Z,13.57
2022-11-30T15:33:23.081Z,17.50
2022-11-30T15:36:15.923Z,14.60
2022-11-30T15:38:37.827Z,15.52
2022-11-30T15:41:16.505Z,17.90
2022-11-30T15:43:43.329Z,16.25
2022-11-30T15:46:29.538Z,15.75
2022-11-30T15:49:06.993Z,14.32
2022-11-30T15:51:38.650Z,15.95
2022-11-30T15:54:05.327Z,13.30
2022-11-30T15:56:31.948Z,15.52
2022-11-30T15:59:06.695Z,15.20
2022-11-30T16:02:01.767Z,15.32
2022-11-30T16:04:29.950Z,16.80
2022-11-30T16:06:56.639Z,15.55
2022-11-30T16:09:25.401Z,14.32
2022-11-30T16:11:57.124Z,17.15
2022-11-30T16:14:23.785Z,14.70
2022-11-30T16:16:53.098Z,16.40
2022-11-30T16:19:20.363Z,16.00
2022-11-30T16:21:48.410Z,17.25
2022-11-30T16:24:15.495Z,15.48
2022-11-30T16:26:50.945Z,17.73
2022-11-30T16:29:18.595Z,17.13
2022-11-30T16:31:45.346Z,15.82
2022-11-30T16:34:12.256Z,17.08
2022-11-30T16:36:39.158Z,15.45
2022-11-30T16:39:05.982Z,15.07
2022-11-30T16:41:34.675Z,18.60
2022-11-30T16:44:01.323Z,17.98
2022-11-30T16:46:28.602Z,16.95
2022-11-30T16:48:55.474Z,17.95
2022-11-30T16:51:24.213Z,18.17
2022-11-30T16:53:50.858Z,16.45
2022-11-30T16:56:17.823Z,15.93
2022-11-30T16:58:44.520Z,16.33
2022-11-30T17:01:14.074Z,16.73
2022-11-30T17:03:41.341Z,15.52
2022-11-30T17:06:09.096Z,17.05
2022-11-30T17:08:35.839Z,16.88
2022-11-30T17:11:02.503Z,16.80
2022-11-30T17:13:29.103Z,17.38
2022-11-30T17:15:55.804Z,16.60
2022-11-30T17:18:22.408Z,17.88
2022-11-30T17:20:49.059Z,15.85
2022-11-30T17:23:16.061Z,18.27
2022-11-30T17:25:42.763Z,15.43
2022-11-30T17:28:09.448Z,16.63
2022-11-30T17:30:36.206Z,20.17
2022-11-30T17:33:02.829Z,17.38
2022-11-30T17:35:29.501Z,20.58
2022-11-30T17:37:56.146Z,16.30
2022-11-30T17:40:22.731Z,18.30
2022-11-30T17:42:49.357Z,15.10
2022-11-30T17:45:16.490Z,14.90
2022-11-30T17:47:43.101Z,15.38
2022-11-30T17:50:10.436Z,16.42
2022-11-30T17:52:37.069Z,12.25
2022-11-30T17:55:03.857Z,12.23
2022-11-30T17:57:30.519Z,9.68
2022-11-30T17:59:57.180Z,9.50
2022-11-30T18:02:23.901Z,12.18
2022-11-30T18:04:52.639Z,8.15
2022-11-30T18:07:20.162Z,10.63
2022-11-30T18:09:46.798Z,9.52
2022-11-30T18:12:13.530Z,9.93
2022-11-30T18:14:40.197Z,9.27
2022-11-30T18:17:06.927Z,8.15
2022-11-30T18:19:33.661Z,9.52
2022-11-30T18:22:00.336Z,9.57
2022-11-30T18:24:26.954Z,9.93
2022-11-30T18:26:53.672Z,9.77
2022-11-30T18:29:20.535Z,11.10
2022-11-30T18:31:48.524Z,12.18
2022-11-30T18:34:15.414Z,9.07
2022-11-30T18:36:42.135Z,10.00
2022-11-30T18:39:08.978Z,9.00
2022-11-30T18:41:35.712Z,11.95
2022-11-30T18:44:02.344Z,9.68
2022-11-30T18:46:29.794Z,8.57
2022-11-30T18:48:56.588Z,14.15
2022-11-30T18:51:24.656Z,11.27
2022-11-30T18:53:57.620Z,9.88
2022-11-30T18:56:27.792Z,11.30
2022-11-30T18:58:58.678Z,10.02
2022-11-30T19:01:25.983Z,10.65
2022-11-30T19:03:53.522Z,10.35
2022-11-30T19:06:20.492Z,12.13
2022-11-30T19:08:47.831Z,10.82
2022-11-30T19:11:15.682Z,10.85
2022-11-30T19:13:42.425Z,11.32
2022-11-30T19:16:10.727Z,10.80
2022-11-30T19:18:37.797Z,11.23
2022-11-30T19:21:08.439Z,11.43
2022-11-30T19:23:35.917Z,12.23
2022-11-30T19:26:02.721Z,10.98
2022-11-30T19:28:30.386Z,13.07
2022-11-30T19:30:57.480Z,12.10
2022-11-30T19:33:25.241Z,12.43
2022-11-30T19:35:51.872Z,13.00
2022-11-30T19:38:18.707Z,11.95
2022-11-30T19:40:45.318Z,11.93
2022-11-30T19:43:11.936Z,13.40
2022-11-30T19:45:38.632Z,13.85
2022-11-30T19:48:05.502Z,12.32
2022-11-30T19:50:32.138Z,12.10
2022-11-30T19:52:59.017Z,12.75
2022-11-30T19:55:25.769Z,12.00
2022-11-30T19:57:52.408Z,12.40
2022-11-30T20:00:19.338Z,12.50
2022-11-30T20:02:47.415Z,12.57
2022-11-30T20:05:14.094Z,13.40
2022-11-30T20:07:40.809Z,13.48
2022-11-30T20:10:07.689Z,13.30
2022-11-30T20:12:34.415Z,14.68
2022-11-30T20:15:01.030Z,12.85
2022-11-30T20:17:27.766Z,13.95
2022-11-30T20:19:54.405Z,12.35
2022-11-30T20:22:21.022Z,15.35
2022-11-30T20:24:50.880Z,11.55
2022-11-30T20:27:24.111Z,12.77
2022-11-30T20:29:51.291Z,14.55
2022-11-30T20:32:18.594Z,13.85
2022-11-30T20:34:45.518Z,13.02
2022-11-30T20:37:12.365Z,14.10
2022-11-30T20:39:45.310Z,15.38
2022-11-30T20:42:12.637Z,14.45
2022-11-30T20:44:39.285Z,14.73
2022-11-30T20:47:05.909Z,16.00
2022-11-30T20:49:32.600Z,15.10
2022-11-30T20:51:59.259Z,15.13
2022-11-30T20:54:25.943Z,16.63
2022-11-30T20:56:52.526Z,16.08
2022-11-30T20:59:23.733Z,12.80
2022-11-30T21:01:50.767Z,17.05
2022-11-30T21:04:17.470Z,15.05
2022-11-30T21:06:46.096Z,13.27
2022-11-30T21:09:16.802Z,14.35
2022-11-30T21:11:43.768Z,14.70
2022-11-30T21:14:11.091Z,16.50
2022-11-30T21:16:37.831Z,16.00
2022-11-30T21:19:04.409Z,15.32
2022-11-30T21:21:32.200Z,17.23
2022-11-30T21:24:00.593Z,14.73
2022-11-30T21:26:31.341Z,15.88
2022-11-30T21:29:03.387Z,14.80
2022-11-30T21:31:30.702Z,15.65
2022-11-30T21:33:57.447Z,13.82
2022-11-30T21:36:24.303Z,15.05
2022-11-30T21:38:59.534Z,16.05
2022-11-30T21:41:30.999Z,14.20
2022-11-30T21:43:57.676Z,14.50
2022-11-30T21:46:24.343Z,15.50
2022-11-30T21:48:51.147Z,15.77
2022-11-30T21:51:19.536Z,16.08
2022-11-30T21:53:47.374Z,15.30
2022-11-30T21:56:15.510Z,14.45
2022-11-30T21:58:43.396Z,17.00
2022-11-30T22:01:33.432Z,18.15
2022-11-30T22:04:00.505Z,16.50
2022-11-30T22:06:27.858Z,16.27
2022-11-30T22:09:03.574Z,18.67
2022-11-30T22:11:30.892Z,16.33
2022-11-30T22:13:57.599Z,15.80
2022-11-30T22:16:26.420Z,15.77
2022-11-30T22:18:56.433Z,16.88
2022-11-30T22:21:27.348Z,15.77
2022-11-30T22:23:54.103Z,17.23
2022-11-30T22:26:22.051Z,17.95
2022-11-30T22:28:50.213Z,17.02
2022-11-30T22:31:18.759Z,18.92
2022-11-30T22:33:45.498Z,16.73
2022-11-30T22:36:13.670Z,16.00
2022-11-30T22:38:40.818Z,17.08
2022-11-30T22:41:09.074Z,18.95
2022-11-30T22:43:35.909Z,18.50
2022-11-30T22:46:06.940Z,18.17
2022-11-30T22:48:34.075Z,19.33
2022-11-30T22:51:11.449Z,19.60
2022-11-30T22:53:39.128Z,17.90
2022-11-30T22:56:06.148Z,16.85
2022-11-30T22:58:33.182Z,18.33
2022-11-30T23:01:07.197Z,17.33
2022-11-30T23:03:33.929Z,20.35
2022-11-30T23:06:00.590Z,18.38
2022-11-30T23:08:28.274Z,17.30
2022-11-30T23:10:58.794Z,19.60
2022-11-30T23:13:26.557Z,19.67
2022-11-30T23:15:57.381Z,18.75
2022-11-30T23:18:24.192Z,17.45
2022-11-30T23:20:50.874Z,21.15
2022-11-30T23:23:17.446Z,21.30
2022-11-30T23:25:44.063Z,20.27
2022-11-30T23:28:10.699Z,19.38
2022-11-30T23:30:37.319Z,20.65
2022-11-30T23:33:03.986Z,17.52
2022-11-30T23:35:30.608Z,22.15
2022-11-30T23:37:57.236Z,19.85
2022-11-30T23:40:23.937Z,18.38
2022-11-30T23:42:50.573Z,17.80
2022-11-30T23:45:17.218Z,21.58
2022-11-30T23:47:43.898Z,20.88
2022-11-30T23:50:10.703Z,19.77
2022-11-30T23:52:37.349Z,18.45
2022-11-30T23:55:04.231Z,20.45
2022-11-30T23:57:30.929Z,19.60
2022-11-30T23:59:57.570Z,20.92
